sensor_id;sensor_type;location;lat;lon;timestamp;P1;durP1;ratioP1;P2;durP2;ratioP2
72037;SDS011;59900;50.788;12.904;2023-07-09T00:01:33;9.83;;;4.40;;
72037;SDS011;59900;50.788;12.904;2023-07-09T00:03:59;10.17;;;4.53;;
72037;SDS011;59900;50.788;12.904;2023-07-09T00:06:24;8.30;;;5.03;;
72037;SDS011;59900;50.788;12.904;2023-07-09T00:08:49;8.48;;;4.70;;
72037;SDS011;59900;50.788;12.904;2023-07-09T00:11:15;8.57;;;4.67;;
72037;SDS011;59900;50.788;12.904;2023-07-09T00:13:41;9.73;;;5.03;;
72037;SDS011;59900;50.788;12.904;2023-07-09T00:16:10;8.80;;;4.97;;
72037;SDS011;59900;50.788;12.904;2023-07-09T00:18:37;7.63;;;4.35;;
72037;SDS011;59900;50.788;12.904;2023-07-09T00:21:03;8.13;;;4.93;;
72037;SDS011;59900;50.788;12.904;2023-07-09T00:23:28;7.43;;;4.40;;
72037;SDS011;59900;50.788;12.904;2023-07-09T00:25:54;8.02;;;4.80;;
72037;SDS011;59900;50.788;12.904;2023-07-09T00:28:20;8.27;;;4.87;;
72037;SDS011;59900;50.788;12.904;2023-07-09T00:30:45;7.40;;;4.90;;
72037;SDS011;59900;50.788;12.904;2023-07-09T00:33:11;7.70;;;4.18;;
72037;SDS011;59900;50.788;12.904;2023-07-09T00:35:41;6.97;;;4.57;;
72037;SDS011;59900;50.788;12.904;2023-07-09T00:38:12;10.00;;;5.03;;
72037;SDS011;59900;50.788;12.904;2023-07-09T00:40:44;7.45;;;4.28;;
72037;SDS011;59900;50.788;12.904;2023-07-09T00:43:12;7.60;;;4.85;;
72037;SDS011;59900;50.788;12.904;2023-07-09T00:45:40;9.68;;;4.63;;
72037;SDS011;59900;50.788;12.904;2023-07-09T00:48:05;7.73;;;5.20;;
72037;SDS011;59900;50.788;12.904;2023-07-09T00:50:41;7.97;;;4.80;;
72037;SDS011;59900;50.788;12.904;2023-07-09T00:53:17;8.70;;;4.38;;
72037;SDS011;59900;50.788;12.904;2023-07-09T00:55:50;8.35;;;4.95;;
72037;SDS011;59900;50.788;12.904;2023-07-09T00:58:21;7.82;;;4.30;;
72037;SDS011;59900;50.788;12.904;2023-07-09T01:00:52;8.32;;;4.78;;
72037;SDS011;59900;50.788;12.904;2023-07-09T01:03:40;7.80;;;4.53;;
72037;SDS011;59900;50.788;12.904;2023-07-09T01:06:10;6.75;;;4.07;;
72037;SDS011;59900;50.788;12.904;2023-07-09T01:08:37;7.32;;;4.38;;
72037;SDS011;59900;50.788;12.904;2023-07-09T01:11:17;7.82;;;4.25;;
72037;SDS011;59900;50.788;12.904;2023-07-09T01:13:49;8.20;;;4.00;;
72037;SDS011;59900;50.788;12.904;2023-07-09T01:16:20;7.97;;;4.30;;
72037;SDS011;59900;50.788;12.904;2023-07-09T01:18:49;7.82;;;4.45;;
72037;SDS011;59900;50.788;12.904;2023-07-09T01:21:15;6.72;;;4.18;;
72037;SDS011;59900;50.788;12.904;2023-07-09T01:23:44;6.67;;;4.20;;
72037;SDS011;59900;50.788;12.904;2023-07-09T01:26:11;10.27;;;4.32;;
72037;SDS011;59900;50.788;12.904;2023-07-09T01:28:42;6.90;;;4.18;;
72037;SDS011;59900;50.788;12.904;2023-07-09T01:31:08;8.23;;;4.10;;
72037;SDS011;59900;50.788;12.904;2023-07-09T01:33:35;7.63;;;4.40;;
72037;SDS011;59900;50.788;12.904;2023-07-09T01:36:00;7.30;;;4.60;;
72037;SDS011;59900;50.788;12.904;2023-07-09T01:38:28;6.97;;;3.93;;
72037;SDS011;59900;50.788;12.904;2023-07-09T01:40:57;7.72;;;3.90;;
72037;SDS011;59900;50.788;12.904;2023-07-09T01:43:23;8.53;;;4.37;;
72037;SDS011;59900;50.788;12.904;2023-07-09T01:45:50;8.02;;;4.03;;
72037;SDS011;59900;50.788;12.904;2023-07-09T01:48:16;7.70;;;4.50;;
72037;SDS011;59900;50.788;12.904;2023-07-09T01:50:41;8.30;;;4.83;;
72037;SDS011;59900;50.788;12.904;2023-07-09T01:53:08;7.00;;;4.30;;
72037;SDS011;59900;50.788;12.904;2023-07-09T01:55:37;9.07;;;4.55;;
72037;SDS011;59900;50.788;12.904;2023-07-09T01:58:02;7.43;;;4.38;;
72037;SDS011;59900;50.788;12.904;2023-07-09T02:00:31;7.83;;;4.83;;
72037;SDS011;59900;50.788;12.904;2023-07-09T02:03:00;8.93;;;4.40;;
72037;SDS011;59900;50.788;12.904;2023-07-09T02:05:27;9.50;;;4.38;;
72037;SDS011;59900;50.788;12.904;2023-07-09T02:07:54;8.52;;;4.90;;
72037;SDS011;59900;50.788;12.904;2023-07-09T02:10:20;7.47;;;4.53;;
72037;SDS011;59900;50.788;12.904;2023-07-09T02:12:45;9.68;;;5.28;;
72037;SDS011;59900;50.788;12.904;2023-07-09T02:15:11;7.93;;;4.53;;
72037;SDS011;59900;50.788;12.904;2023-07-09T02:17:37;8.60;;;5.10;;
72037;SDS011;59900;50.788;12.904;2023-07-09T02:20:03;7.53;;;4.83;;
72037;SDS011;59900;50.788;12.904;2023-07-09T02:22:31;8.55;;;4.35;;
72037;SDS011;59900;50.788;12.904;2023-07-09T02:24:57;8.00;;;4.53;;
72037;SDS011;59900;50.788;12.904;2023-07-09T02:27:22;7.23;;;4.30;;
72037;SDS011;59900;50.788;12.904;2023-07-09T02:29:47;8.23;;;4.57;;
72037;SDS011;59900;50.788;12.904;2023-07-09T02:32:17;9.10;;;4.93;;
72037;SDS011;59900;50.788;12.904;2023-07-09T02:34:44;10.77;;;4.68;;
72037;SDS011;59900;50.788;12.904;2023-07-09T02:37:13;8.02;;;5.10;;
72037;SDS011;59900;50.788;12.904;2023-07-09T02:39:40;8.50;;;4.60;;
72037;SDS011;59900;50.788;12.904;2023-07-09T02:42:05;8.43;;;4.80;;
72037;SDS011;59900;50.788;12.904;2023-07-09T02:44:30;8.45;;;4.32;;
72037;SDS011;59900;50.788;12.904;2023-07-09T02:46:56;9.27;;;4.93;;
72037;SDS011;59900;50.788;12.904;2023-07-09T02:49:21;7.13;;;4.53;;
72037;SDS011;59900;50.788;12.904;2023-07-09T02:51:47;8.95;;;4.90;;
72037;SDS011;59900;50.788;12.904;2023-07-09T02:54:12;8.40;;;4.97;;
72037;SDS011;59900;50.788;12.904;2023-07-09T02:56:37;7.97;;;4.97;;
72037;SDS011;59900;50.788;12.904;2023-07-09T02:59:03;11.03;;;5.23;;
72037;SDS011;59900;50.788;12.904;2023-07-09T03:01:29;9.18;;;5.28;;
72037;SDS011;59900;50.788;12.904;2023-07-09T03:03:55;7.87;;;5.20;;
72037;SDS011;59900;50.788;12.904;2023-07-09T03:06:21;9.37;;;5.33;;
72037;SDS011;59900;50.788;12.904;2023-07-09T03:08:47;8.38;;;5.18;;
72037;SDS011;59900;50.788;12.904;2023-07-09T03:11:13;8.83;;;5.30;;
72037;SDS011;59900;50.788;12.904;2023-07-09T03:13:40;7.63;;;5.03;;
72037;SDS011;59900;50.788;12.904;2023-07-09T03:16:05;8.57;;;5.00;;
72037;SDS011;59900;50.788;12.904;2023-07-09T03:18:31;8.30;;;5.30;;
72037;SDS011;59900;50.788;12.904;2023-07-09T03:20:56;9.33;;;4.93;;
72037;SDS011;59900;50.788;12.904;2023-07-09T03:23:21;8.90;;;5.33;;
72037;SDS011;59900;50.788;12.904;2023-07-09T03:25:47;8.57;;;4.60;;
72037;SDS011;59900;50.788;12.904;2023-07-09T03:28:12;8.00;;;5.03;;
72037;SDS011;59900;50.788;12.904;2023-07-09T03:30:41;8.82;;;5.18;;
72037;SDS011;59900;50.788;12.904;2023-07-09T03:33:07;8.50;;;4.83;;
72037;SDS011;59900;50.788;12.904;2023-07-09T03:35:34;8.15;;;5.20;;
72037;SDS011;59900;50.788;12.904;2023-07-09T03:37:59;10.48;;;5.32;;
72037;SDS011;59900;50.788;12.904;2023-07-09T03:40:25;8.50;;;4.73;;
72037;SDS011;59900;50.788;12.904;2023-07-09T03:42:50;9.10;;;5.43;;
72037;SDS011;59900;50.788;12.904;2023-07-09T03:45:15;9.80;;;5.10;;
72037;SDS011;59900;50.788;12.904;2023-07-09T03:47:40;11.37;;;4.80;;
72037;SDS011;59900;50.788;12.904;2023-07-09T03:50:07;7.83;;;4.63;;
72037;SDS011;59900;50.788;12.904;2023-07-09T03:52:33;8.88;;;5.05;;
72037;SDS011;59900;50.788;12.904;2023-07-09T03:54:58;11.33;;;4.90;;
72037;SDS011;59900;50.788;12.904;2023-07-09T03:57:25;8.02;;;5.07;;
72037;SDS011;59900;50.788;12.904;2023-07-09T03:59:51;7.80;;;5.30;;
72037;SDS011;59900;50.788;12.904;2023-07-09T04:02:17;12.07;;;4.70;;
72037;SDS011;59900;50.788;12.904;2023-07-09T04:04:42;7.10;;;4.77;;
72037;SDS011;59900;50.788;12.904;2023-07-09T04:07:07;8.00;;;5.17;;
72037;SDS011;59900;50.788;12.904;2023-07-09T04:09:32;8.03;;;4.70;;
72037;SDS011;59900;50.788;12.904;2023-07-09T04:11:58;7.87;;;4.83;;
72037;SDS011;59900;50.788;12.904;2023-07-09T04:14:26;8.10;;;5.00;;
72037;SDS011;59900;50.788;12.904;2023-07-09T04:16:51;7.73;;;4.63;;
72037;SDS011;59900;50.788;12.904;2023-07-09T04:19:16;9.87;;;4.67;;
72037;SDS011;59900;50.788;12.904;2023-07-09T04:21:42;7.83;;;4.67;;
72037;SDS011;59900;50.788;12.904;2023-07-09T04:24:07;11.70;;;5.07;;
72037;SDS011;59900;50.788;12.904;2023-07-09T04:26:32;11.07;;;5.07;;
72037;SDS011;59900;50.788;12.904;2023-07-09T04:28:57;8.30;;;4.53;;
72037;SDS011;59900;50.788;12.904;2023-07-09T04:31:23;9.30;;;4.93;;
72037;SDS011;59900;50.788;12.904;2023-07-09T04:33:48;8.37;;;4.77;;
72037;SDS011;59900;50.788;12.904;2023-07-09T04:36:13;9.70;;;4.90;;
72037;SDS011;59900;50.788;12.904;2023-07-09T04:38:38;7.40;;;4.80;;
72037;SDS011;59900;50.788;12.904;2023-07-09T04:41:03;9.63;;;5.00;;
72037;SDS011;59900;50.788;12.904;2023-07-09T04:43:29;7.80;;;4.90;;
72037;SDS011;59900;50.788;12.904;2023-07-09T04:45:54;7.88;;;4.57;;
72037;SDS011;59900;50.788;12.904;2023-07-09T04:48:20;10.00;;;4.80;;
72037;SDS011;59900;50.788;12.904;2023-07-09T04:50:45;9.20;;;4.70;;
72037;SDS011;59900;50.788;12.904;2023-07-09T04:53:15;9.38;;;4.80;;
72037;SDS011;59900;50.788;12.904;2023-07-09T04:55:40;8.27;;;4.67;;
72037;SDS011;59900;50.788;12.904;2023-07-09T04:58:05;8.77;;;4.77;;
72037;SDS011;59900;50.788;12.904;2023-07-09T05:00:30;8.30;;;5.30;;
72037;SDS011;59900;50.788;12.904;2023-07-09T05:02:56;9.40;;;5.20;;
72037;SDS011;59900;50.788;12.904;2023-07-09T05:05:21;9.83;;;5.50;;
72037;SDS011;59900;50.788;12.904;2023-07-09T05:07:46;7.53;;;5.20;;
72037;SDS011;59900;50.788;12.904;2023-07-09T05:10:12;10.45;;;5.10;;
72037;SDS011;59900;50.788;12.904;2023-07-09T05:12:46;8.17;;;4.70;;
72037;SDS011;59900;50.788;12.904;2023-07-09T05:15:13;9.38;;;5.10;;
72037;SDS011;59900;50.788;12.904;2023-07-09T05:17:38;9.40;;;5.30;;
72037;SDS011;59900;50.788;12.904;2023-07-09T05:20:04;9.73;;;4.90;;
72037;SDS011;59900;50.788;12.904;2023-07-09T05:22:30;7.07;;;4.90;;
72037;SDS011;59900;50.788;12.904;2023-07-09T05:24:55;10.33;;;5.83;;
72037;SDS011;59900;50.788;12.904;2023-07-09T05:27:20;8.70;;;5.27;;
72037;SDS011;59900;50.788;12.904;2023-07-09T05:29:45;11.00;;;6.10;;
72037;SDS011;59900;50.788;12.904;2023-07-09T05:32:11;9.40;;;5.03;;
72037;SDS011;59900;50.788;12.904;2023-07-09T05:34:36;8.90;;;5.67;;
72037;SDS011;59900;50.788;12.904;2023-07-09T05:37:01;8.47;;;5.40;;
72037;SDS011;59900;50.788;12.904;2023-07-09T05:39:26;9.80;;;4.77;;
72037;SDS011;59900;50.788;12.904;2023-07-09T05:41:52;8.07;;;5.13;;
72037;SDS011;59900;50.788;12.904;2023-07-09T05:44:17;8.27;;;5.03;;
72037;SDS011;59900;50.788;12.904;2023-07-09T05:46:42;8.27;;;4.73;;
72037;SDS011;59900;50.788;12.904;2023-07-09T05:49:07;7.67;;;4.50;;
72037;SDS011;59900;50.788;12.904;2023-07-09T05:51:33;7.90;;;4.97;;
72037;SDS011;59900;50.788;12.904;2023-07-09T05:53:59;9.40;;;5.03;;
72037;SDS011;59900;50.788;12.904;2023-07-09T05:56:24;7.13;;;4.20;;
72037;SDS011;59900;50.788;12.904;2023-07-09T05:58:50;8.50;;;4.60;;
72037;SDS011;59900;50.788;12.904;2023-07-09T06:01:15;8.97;;;5.20;;
72037;SDS011;59900;50.788;12.904;2023-07-09T06:03:40;7.93;;;4.80;;
72037;SDS011;59900;50.788;12.904;2023-07-09T06:06:05;9.00;;;5.10;;
72037;SDS011;59900;50.788;12.904;2023-07-09T06:08:31;7.30;;;4.50;;
72037;SDS011;59900;50.788;12.904;2023-07-09T06:10:58;8.57;;;4.90;;
72037;SDS011;59900;50.788;12.904;2023-07-09T06:13:25;7.50;;;4.75;;
72037;SDS011;59900;50.788;12.904;2023-07-09T06:15:51;11.00;;;5.20;;
72037;SDS011;59900;50.788;12.904;2023-07-09T06:18:17;10.10;;;5.30;;
72037;SDS011;59900;50.788;12.904;2023-07-09T06:20:51;7.90;;;4.90;;
72037;SDS011;59900;50.788;12.904;2023-07-09T06:23:18;8.32;;;5.10;;
72037;SDS011;59900;50.788;12.904;2023-07-09T06:25:44;8.10;;;4.82;;
72037;SDS011;59900;50.788;12.904;2023-07-09T06:28:13;7.90;;;4.80;;
72037;SDS011;59900;50.788;12.904;2023-07-09T06:30:40;8.40;;;5.15;;
72037;SDS011;59900;50.788;12.904;2023-07-09T06:33:05;8.30;;;5.40;;
72037;SDS011;59900;50.788;12.904;2023-07-09T06:35:30;7.73;;;4.90;;
72037;SDS011;59900;50.788;12.904;2023-07-09T06:37:56;8.10;;;4.77;;
72037;SDS011;59900;50.788;12.904;2023-07-09T06:40:21;8.27;;;5.30;;
72037;SDS011;59900;50.788;12.904;2023-07-09T06:42:46;10.00;;;5.10;;
72037;SDS011;59900;50.788;12.904;2023-07-09T06:45:11;7.30;;;4.40;;
72037;SDS011;59900;50.788;12.904;2023-07-09T06:47:37;8.00;;;4.73;;
72037;SDS011;59900;50.788;12.904;2023-07-09T06:50:02;7.43;;;4.43;;
72037;SDS011;59900;50.788;12.904;2023-07-09T06:52:27;8.13;;;4.70;;
72037;SDS011;59900;50.788;12.904;2023-07-09T06:54:53;8.40;;;4.60;;
72037;SDS011;59900;50.788;12.904;2023-07-09T06:57:18;8.43;;;4.87;;
72037;SDS011;59900;50.788;12.904;2023-07-09T06:59:43;7.50;;;5.10;;
72037;SDS011;59900;50.788;12.904;2023-07-09T07:02:09;9.10;;;4.78;;
72037;SDS011;59900;50.788;12.904;2023-07-09T07:04:34;9.03;;;5.20;;
72037;SDS011;59900;50.788;12.904;2023-07-09T07:06:59;7.50;;;4.70;;
72037;SDS011;59900;50.788;12.904;2023-07-09T07:09:24;8.43;;;4.87;;
72037;SDS011;59900;50.788;12.904;2023-07-09T07:11:50;7.50;;;4.63;;
72037;SDS011;59900;50.788;12.904;2023-07-09T07:14:15;8.33;;;4.27;;
72037;SDS011;59900;50.788;12.904;2023-07-09T07:16:40;7.27;;;4.37;;
72037;SDS011;59900;50.788;12.904;2023-07-09T07:19:06;7.13;;;4.10;;
72037;SDS011;59900;50.788;12.904;2023-07-09T07:21:31;7.33;;;4.63;;
72037;SDS011;59900;50.788;12.904;2023-07-09T07:23:56;7.20;;;4.30;;
72037;SDS011;59900;50.788;12.904;2023-07-09T07:26:22;7.50;;;4.20;;
72037;SDS011;59900;50.788;12.904;2023-07-09T07:28:47;9.23;;;4.70;;
72037;SDS011;59900;50.788;12.904;2023-07-09T07:31:12;9.87;;;4.80;;
72037;SDS011;59900;50.788;12.904;2023-07-09T07:33:39;8.02;;;4.45;;
72037;SDS011;59900;50.788;12.904;2023-07-09T07:36:05;8.57;;;4.20;;
72037;SDS011;59900;50.788;12.904;2023-07-09T07:38:31;9.55;;;4.65;;
72037;SDS011;59900;50.788;12.904;2023-07-09T07:40:56;8.10;;;4.40;;
72037;SDS011;59900;50.788;12.904;2023-07-09T07:43:22;7.30;;;4.70;;
72037;SDS011;59900;50.788;12.904;2023-07-09T07:45:47;7.27;;;4.27;;
72037;SDS011;59900;50.788;12.904;2023-07-09T07:48:12;7.50;;;4.50;;
72037;SDS011;59900;50.788;12.904;2023-07-09T07:50:38;8.73;;;4.70;;
72037;SDS011;59900;50.788;12.904;2023-07-09T07:53:04;7.97;;;4.20;;
72037;SDS011;59900;50.788;12.904;2023-07-09T07:55:29;7.50;;;4.63;;
72037;SDS011;59900;50.788;12.904;2023-07-09T07:57:55;9.03;;;5.07;;
72037;SDS011;59900;50.788;12.904;2023-07-09T08:00:22;6.82;;;4.53;;
72037;SDS011;59900;50.788;12.904;2023-07-09T08:02:47;9.27;;;4.90;;
72037;SDS011;59900;50.788;12.904;2023-07-09T08:05:12;8.73;;;5.27;;
72037;SDS011;59900;50.788;12.904;2023-07-09T08:07:37;8.97;;;5.10;;
72037;SDS011;59900;50.788;12.904;2023-07-09T08:10:03;7.33;;;4.20;;
72037;SDS011;59900;50.788;12.904;2023-07-09T08:12:29;7.50;;;4.80;;
72037;SDS011;59900;50.788;12.904;2023-07-09T08:14:54;9.00;;;4.70;;
72037;SDS011;59900;50.788;12.904;2023-07-09T08:17:20;7.00;;;4.20;;
72037;SDS011;59900;50.788;12.904;2023-07-09T08:19:49;7.00;;;4.63;;
72037;SDS011;59900;50.788;12.904;2023-07-09T08:22:15;8.80;;;4.30;;
72037;SDS011;59900;50.788;12.904;2023-07-09T08:24:41;7.30;;;4.70;;
72037;SDS011;59900;50.788;12.904;2023-07-09T08:27:07;9.43;;;4.87;;
72037;SDS011;59900;50.788;12.904;2023-07-09T08:29:33;7.93;;;4.50;;
72037;SDS011;59900;50.788;12.904;2023-07-09T08:31:59;8.50;;;4.50;;
72037;SDS011;59900;50.788;12.904;2023-07-09T08:34:24;7.60;;;4.10;;
72037;SDS011;59900;50.788;12.904;2023-07-09T08:36:50;7.47;;;4.37;;
72037;SDS011;59900;50.788;12.904;2023-07-09T08:39:15;13.97;;;4.27;;
72037;SDS011;59900;50.788;12.904;2023-07-09T08:41:54;7.10;;;4.30;;
72037;SDS011;59900;50.788;12.904;2023-07-09T08:44:26;7.85;;;4.50;;
72037;SDS011;59900;50.788;12.904;2023-07-09T08:50:15;7.57;;;4.10;;
72037;SDS011;59900;50.788;12.904;2023-07-09T08:52:47;7.77;;;4.60;;
72037;SDS011;59900;50.788;12.904;2023-07-09T08:55:15;7.95;;;4.07;;
72037;SDS011;59900;50.788;12.904;2023-07-09T08:57:43;8.07;;;4.47;;
72037;SDS011;59900;50.788;12.904;2023-07-09T09:00:17;7.00;;;4.22;;
72037;SDS011;59900;50.788;12.904;2023-07-09T09:03:03;8.57;;;4.50;;
72037;SDS011;59900;50.788;12.904;2023-07-09T09:05:34;7.70;;;4.80;;
72037;SDS011;59900;50.788;12.904;2023-07-09T09:08:25;8.07;;;3.97;;
72037;SDS011;59900;50.788;12.904;2023-07-09T09:11:07;6.63;;;3.65;;
72037;SDS011;59900;50.788;12.904;2023-07-09T09:13:35;7.13;;;4.18;;
72037;SDS011;59900;50.788;12.904;2023-07-09T09:16:02;8.07;;;4.40;;
72037;SDS011;59900;50.788;12.904;2023-07-09T09:18:34;7.00;;;3.97;;
72037;SDS011;59900;50.788;12.904;2023-07-09T09:21:17;8.35;;;4.13;;
72037;SDS011;59900;50.788;12.904;2023-07-09T09:23:50;8.25;;;4.60;;
72037;SDS011;59900;50.788;12.904;2023-07-09T09:26:24;7.60;;;4.50;;
72037;SDS011;59900;50.788;12.904;2023-07-09T09:28:49;6.95;;;3.60;;
72037;SDS011;59900;50.788;12.904;2023-07-09T09:31:16;9.67;;;4.30;;
72037;SDS011;59900;50.788;12.904;2023-07-09T09:33:43;8.77;;;4.10;;
72037;SDS011;59900;50.788;12.904;2023-07-09T09:36:20;7.55;;;4.28;;
72037;SDS011;59900;50.788;12.904;2023-07-09T09:38:47;8.93;;;4.13;;
72037;SDS011;59900;50.788;12.904;2023-07-09T09:41:16;7.65;;;4.45;;
72037;SDS011;59900;50.788;12.904;2023-07-09T09:43:44;7.80;;;4.23;;
72037;SDS011;59900;50.788;12.904;2023-07-09T09:46:14;7.60;;;3.97;;
72037;SDS011;59900;50.788;12.904;2023-07-09T09:48:44;7.00;;;3.50;;
72037;SDS011;59900;50.788;12.904;2023-07-09T09:51:11;8.15;;;3.42;;
72037;SDS011;59900;50.788;12.904;2023-07-09T09:53:39;8.90;;;3.60;;
72037;SDS011;59900;50.788;12.904;2023-07-09T09:56:11;7.70;;;3.60;;
72037;SDS011;59900;50.788;12.904;2023-07-09T09:58:40;8.55;;;3.70;;
72037;SDS011;59900;50.788;12.904;2023-07-09T10:01:11;7.65;;;3.75;;
72037;SDS011;59900;50.788;12.904;2023-07-09T10:03:40;7.40;;;3.80;;
72037;SDS011;59900;50.788;12.904;2023-07-09T10:06:07;7.67;;;3.77;;
72037;SDS011;59900;50.788;12.904;2023-07-09T10:11:46;7.30;;;3.90;;
72037;SDS011;59900;50.788;12.904;2023-07-09T10:14:34;7.47;;;3.80;;
72037;SDS011;59900;50.788;12.904;2023-07-09T10:17:11;7.60;;;3.85;;
72037;SDS011;59900;50.788;12.904;2023-07-09T10:20:02;7.75;;;4.13;;
72037;SDS011;59900;50.788;12.904;2023-07-09T10:22:55;9.00;;;3.90;;
72037;SDS011;59900;50.788;12.904;2023-07-09T10:28:35;6.40;;;3.40;;
72037;SDS011;59900;50.788;12.904;2023-07-09T10:39:37;8.82;;;3.63;;
72037;SDS011;59900;50.788;12.904;2023-07-09T10:42:06;7.90;;;3.67;;
72037;SDS011;59900;50.788;12.904;2023-07-09T10:44:41;8.05;;;4.00;;
72037;SDS011;59900;50.788;12.904;2023-07-09T10:47:42;9.93;;;4.00;;
72037;SDS011;59900;50.788;12.904;2023-07-09T10:50:02;7.05;;;3.80;;
72037;SDS011;59900;50.788;12.904;2023-07-09T10:52:32;7.13;;;3.53;;
72037;SDS011;59900;50.788;12.904;2023-07-09T10:55:05;7.37;;;3.60;;
72037;SDS011;59900;50.788;12.904;2023-07-09T11:00:10;8.32;;;4.05;;
72037;SDS011;59900;50.788;12.904;2023-07-09T11:02:40;8.10;;;4.10;;
72037;SDS011;59900;50.788;12.904;2023-07-09T11:05:07;7.05;;;3.40;;
72037;SDS011;59900;50.788;12.904;2023-07-09T11:07:47;6.90;;;3.60;;
72037;SDS011;59900;50.788;12.904;2023-07-09T11:10:31;8.43;;;3.90;;
72037;SDS011;59900;50.788;12.904;2023-07-09T11:13:03;7.47;;;3.70;;
72037;SDS011;59900;50.788;12.904;2023-07-09T11:15:36;7.53;;;4.00;;
72037;SDS011;59900;50.788;12.904;2023-07-09T11:18:05;7.82;;;3.80;;
72037;SDS011;59900;50.788;12.904;2023-07-09T11:20:33;7.40;;;3.72;;
72037;SDS011;59900;50.788;12.904;2023-07-09T11:23:18;7.18;;;4.18;;
72037;SDS011;59900;50.788;12.904;2023-07-09T11:25:46;8.43;;;3.88;;
72037;SDS011;59900;50.788;12.904;2023-07-09T11:28:13;6.37;;;3.77;;
72037;SDS011;59900;50.788;12.904;2023-07-09T11:30:46;7.82;;;3.83;;
72037;SDS011;59900;50.788;12.904;2023-07-09T11:33:20;8.45;;;4.05;;
72037;SDS011;59900;50.788;12.904;2023-07-09T11:35:52;8.30;;;4.10;;
72037;SDS011;59900;50.788;12.904;2023-07-09T11:38:21;7.50;;;3.67;;
72037;SDS011;59900;50.788;12.904;2023-07-09T11:40:48;7.20;;;3.75;;
72037;SDS011;59900;50.788;12.904;2023-07-09T11:43:25;7.82;;;3.95;;
72037;SDS011;59900;50.788;12.904;2023-07-09T11:46:11;9.23;;;4.03;;
72037;SDS011;59900;50.788;12.904;2023-07-09T11:48:42;7.40;;;3.58;;
72037;SDS011;59900;50.788;12.904;2023-07-09T11:51:18;9.67;;;4.20;;
72037;SDS011;59900;50.788;12.904;2023-07-09T11:53:49;7.22;;;3.85;;
72037;SDS011;59900;50.788;12.904;2023-07-09T11:56:21;10.40;;;3.88;;
72037;SDS011;59900;50.788;12.904;2023-07-09T11:58:52;8.02;;;3.92;;
72037;SDS011;59900;50.788;12.904;2023-07-09T12:01:24;7.20;;;3.72;;
72037;SDS011;59900;50.788;12.904;2023-07-09T12:03:55;16.03;;;6.23;;
72037;SDS011;59900;50.788;12.904;2023-07-09T12:06:23;7.85;;;4.00;;
72037;SDS011;59900;50.788;12.904;2023-07-09T12:08:51;7.13;;;4.00;;
72037;SDS011;59900;50.788;12.904;2023-07-09T12:11:31;7.95;;;3.75;;
72037;SDS011;59900;50.788;12.904;2023-07-09T12:14:08;7.13;;;3.70;;
72037;SDS011;59900;50.788;12.904;2023-07-09T12:16:37;8.00;;;3.87;;
72037;SDS011;59900;50.788;12.904;2023-07-09T12:19:04;8.05;;;3.95;;
72037;SDS011;59900;50.788;12.904;2023-07-09T12:21:30;8.90;;;4.00;;
72037;SDS011;59900;50.788;12.904;2023-07-09T12:23:59;7.38;;;3.80;;
72037;SDS011;59900;50.788;12.904;2023-07-09T12:26:25;8.67;;;4.00;;
72037;SDS011;59900;50.788;12.904;2023-07-09T12:28:51;7.93;;;3.88;;
72037;SDS011;59900;50.788;12.904;2023-07-09T12:31:17;7.57;;;3.63;;
72037;SDS011;59900;50.788;12.904;2023-07-09T12:33:49;8.30;;;3.95;;
72037;SDS011;59900;50.788;12.904;2023-07-09T12:36:17;7.27;;;3.83;;
72037;SDS011;59900;50.788;12.904;2023-07-09T12:38:44;10.18;;;3.92;;
72037;SDS011;59900;50.788;12.904;2023-07-09T12:41:17;8.00;;;4.13;;
72037;SDS011;59900;50.788;12.904;2023-07-09T12:43:45;7.97;;;3.92;;
72037;SDS011;59900;50.788;12.904;2023-07-09T12:46:11;8.23;;;3.60;;
72037;SDS011;59900;50.788;12.904;2023-07-09T12:48:37;9.38;;;3.95;;
72037;SDS011;59900;50.788;12.904;2023-07-09T12:51:06;7.47;;;3.70;;
72037;SDS011;59900;50.788;12.904;2023-07-09T12:53:33;7.95;;;3.75;;
72037;SDS011;59900;50.788;12.904;2023-07-09T12:55:59;8.63;;;4.20;;
72037;SDS011;59900;50.788;12.904;2023-07-09T12:58:28;10.30;;;4.15;;
72037;SDS011;59900;50.788;12.904;2023-07-09T13:00:55;7.78;;;3.90;;
72037;SDS011;59900;50.788;12.904;2023-07-09T13:03:26;7.50;;;4.40;;
72037;SDS011;59900;50.788;12.904;2023-07-09T13:06:00;8.60;;;4.07;;
72037;SDS011;59900;50.788;12.904;2023-07-09T13:08:29;6.88;;;3.80;;
72037;SDS011;59900;50.788;12.904;2023-07-09T13:10:56;7.40;;;3.72;;
72037;SDS011;59900;50.788;12.904;2023-07-09T13:13:23;9.30;;;4.53;;
72037;SDS011;59900;50.788;12.904;2023-07-09T13:16:00;8.23;;;3.70;;
72037;SDS011;59900;50.788;12.904;2023-07-09T13:18:27;8.60;;;3.80;;
72037;SDS011;59900;50.788;12.904;2023-07-09T13:20:54;7.47;;;3.97;;
72037;SDS011;59900;50.788;12.904;2023-07-09T13:23:21;7.32;;;4.05;;
72037;SDS011;59900;50.788;12.904;2023-07-09T13:25:49;10.15;;;4.00;;
72037;SDS011;59900;50.788;12.904;2023-07-09T13:28:25;6.70;;;3.57;;
72037;SDS011;59900;50.788;12.904;2023-07-09T13:30:52;10.20;;;4.18;;
72037;SDS011;59900;50.788;12.904;2023-07-09T13:33:20;7.90;;;3.78;;
72037;SDS011;59900;50.788;12.904;2023-07-09T13:35:46;7.13;;;3.60;;
72037;SDS011;59900;50.788;12.904;2023-07-09T13:38:14;9.23;;;3.63;;
72037;SDS011;59900;50.788;12.904;2023-07-09T13:40:40;8.13;;;3.85;;
72037;SDS011;59900;50.788;12.904;2023-07-09T13:43:15;8.77;;;4.00;;
72037;SDS011;59900;50.788;12.904;2023-07-09T13:45:45;7.40;;;3.63;;
72037;SDS011;59900;50.788;12.904;2023-07-09T13:48:18;10.57;;;4.18;;
72037;SDS011;59900;50.788;12.904;2023-07-09T13:50:45;7.75;;;3.88;;
72037;SDS011;59900;50.788;12.904;2023-07-09T13:53:13;7.78;;;3.88;;
72037;SDS011;59900;50.788;12.904;2023-07-09T13:55:40;8.93;;;4.13;;
72037;SDS011;59900;50.788;12.904;2023-07-09T13:58:07;7.28;;;3.78;;
72037;SDS011;59900;50.788;12.904;2023-07-09T14:00:34;7.50;;;4.20;;
72037;SDS011;59900;50.788;12.904;2023-07-09T14:02:59;9.17;;;4.10;;
72037;SDS011;59900;50.788;12.904;2023-07-09T14:05:24;6.93;;;3.70;;
72037;SDS011;59900;50.788;12.904;2023-07-09T14:07:51;6.97;;;3.60;;
72037;SDS011;59900;50.788;12.904;2023-07-09T14:10:17;6.83;;;3.73;;
72037;SDS011;59900;50.788;12.904;2023-07-09T14:12:44;9.93;;;3.85;;
72037;SDS011;59900;50.788;12.904;2023-07-09T14:15:15;7.78;;;3.60;;
72037;SDS011;59900;50.788;12.904;2023-07-09T14:17:43;6.87;;;3.63;;
72037;SDS011;59900;50.788;12.904;2023-07-09T14:20:13;7.15;;;3.60;;
72037;SDS011;59900;50.788;12.904;2023-07-09T14:22:40;6.97;;;3.50;;
72037;SDS011;59900;50.788;12.904;2023-07-09T14:25:09;7.43;;;3.70;;
72037;SDS011;59900;50.788;12.904;2023-07-09T14:27:42;7.40;;;3.70;;
72037;SDS011;59900;50.788;12.904;2023-07-09T14:30:09;8.77;;;3.80;;
72037;SDS011;59900;50.788;12.904;2023-07-09T14:32:39;7.57;;;3.93;;
72037;SDS011;59900;50.788;12.904;2023-07-09T14:35:24;6.43;;;3.88;;
72037;SDS011;59900;50.788;12.904;2023-07-09T14:37:52;7.05;;;3.45;;
72037;SDS011;59900;50.788;12.904;2023-07-09T14:40:19;8.15;;;4.32;;
72037;SDS011;59900;50.788;12.904;2023-07-09T14:42:46;7.25;;;3.97;;
72037;SDS011;59900;50.788;12.904;2023-07-09T14:45:16;7.37;;;3.83;;
72037;SDS011;59900;50.788;12.904;2023-07-09T14:47:44;8.05;;;3.45;;
72037;SDS011;59900;50.788;12.904;2023-07-09T14:50:09;6.23;;;3.40;;
72037;SDS011;59900;50.788;12.904;2023-07-09T14:52:34;6.97;;;3.50;;
72037;SDS011;59900;50.788;12.904;2023-07-09T14:55:00;6.68;;;3.55;;
72037;SDS011;59900;50.788;12.904;2023-07-09T14:57:26;7.10;;;3.57;;
72037;SDS011;59900;50.788;12.904;2023-07-09T14:59:52;6.60;;;3.83;;